Time;durP1;ratioP1;P1;durP2;ratioP2;P2;SDS_P1;SDS_P2;PMS_P1;PMS_P2;Temp;Humidity;BMP_temperature;BMP_pressure;BME280_temperature;BME280_humidity;BME280_pressure;Samples;Min_cycle;Max_cycle;Signal;HPM_P1;HPM_P2
2023/10/31 00:02:27;;;;;;;36.20;25.20;;;;;;;11.48;100.00;99415.95;105646;1257;96637;-77
2023/10/31 00:05:13;;;;;;;41.70;27.60;;;;;;;11.46;100.00;99422.16;105661;1253;96462;-78
2023/10/31 00:07:58;;;;;;;44.80;26.30;;;;;;;11.44;100.00;99422.79;105620;1254;100855;-78
2023/10/31 00:10:44;;;;;;;42.90;27.90;;;;;;;11.42;100.00;99416.66;105500;1258;99691;-79
2023/10/31 00:13:30;;;;;;;48.70;28.90;;;;;;;11.41;100.00;99414.77;106045;1259;97747;-79
2023/10/31 00:16:15;;;;;;;49.70;28.20;;;;;;;11.40;100.00;99409.59;105960;1257;96603;-78
2023/10/31 00:19:01;;;;;;;40.40;25.50;;;;;;;11.40;100.00;99408.30;105626;1257;97930;-79
2023/10/31 00:21:47;;;;;;;54.00;27.80;;;;;;;11.38;100.00;99399.33;105459;1259;100002;-78
2023/10/31 00:24:32;;;;;;;41.80;24.70;;;;;;;11.35;100.00;99393.83;105557;1258;99213;-79
2023/10/31 00:27:18;;;;;;;45.70;24.60;;;;;;;11.33;100.00;99389.06;105689;1258;97802;-79
2023/10/31 00:30:04;;;;;;;41.50;25.10;;;;;;;11.30;100.00;99388.73;105403;1255;96608;-78
2023/10/31 00:32:51;;;;;;;43.70;25.50;;;;;;;11.26;100.00;99379.07;105552;1259;97137;-78
2023/10/31 00:35:37;;;;;;;68.10;30.80;;;;;;;11.23;100.00;99374.35;105654;1253;99969;-78
2023/10/31 00:38:22;;;;;;;55.90;28.90;;;;;;;11.21;100.00;99371.73;105443;1258;99158;-78
2023/10/31 00:41:08;;;;;;;54.90;28.00;;;;;;;11.20;100.00;99361.52;105427;1260;98482;-78
2023/10/31 00:43:53;;;;;;;44.30;24.90;;;;;;;11.20;100.00;99358.72;105808;1257;96569;-80
2023/10/31 00:46:39;;;;;;;38.80;21.50;;;;;;;11.19;100.00;99356.55;105662;1254;97102;-79
2023/10/31 00:49:24;;;;;;;37.60;21.80;;;;;;;11.19;100.00;99346.52;105405;1257;101426;-78
2023/10/31 00:52:10;;;;;;;35.80;21.30;;;;;;;11.18;100.00;99345.91;105707;1253;100316;-78
2023/10/31 00:54:56;;;;;;;33.40;21.50;;;;;;;11.17;100.00;99334.99;105946;1259;98475;-80
2023/10/31 00:57:41;;;;;;;32.40;21.80;;;;;;;11.17;100.00;99321.80;105973;1254;96633;-80
2023/10/31 01:00:27;;;;;;;30.50;20.30;;;;;;;11.17;100.00;99313.72;105396;1256;97362;-79
2023/10/31 01:03:13;;;;;;;30.20;19.20;;;;;;;11.15;100.00;99308.30;105330;1260;101360;-79
2023/10/31 01:05:58;;;;;;;31.60;19.30;;;;;;;11.14;100.00;99296.93;105588;1253;100882;-79
2023/10/31 01:08:45;;;;;;;28.80;20.30;;;;;;;11.12;100.00;99287.14;105856;1253;99404;-79
2023/10/31 01:11:30;;;;;;;35.00;20.70;;;;;;;11.11;100.00;99285.55;105707;1257;96607;-79
2023/10/31 01:14:16;;;;;;;28.80;19.50;;;;;;;11.09;100.00;99295.00;105673;1259;96740;-78
2023/10/31 01:17:01;;;;;;;28.80;17.50;;;;;;;11.07;100.00;99291.15;105651;1253;100229;-79
2023/10/31 01:19:47;;;;;;;27.90;17.70;;;;;;;11.07;100.00;99283.92;105460;1257;99187;-79
2023/10/31 01:22:33;;;;;;;29.40;18.80;;;;;;;11.09;100.00;99287.58;105464;1258;99068;-79
2023/10/31 01:25:18;;;;;;;25.90;17.10;;;;;;;11.09;100.00;99291.54;105423;1259;96615;-79
2023/10/31 01:28:04;;;;;;;25.00;17.60;;;;;;;11.09;100.00;99278.29;105588;1259;96389;-79
2023/10/31 01:30:49;;;;;;;27.50;18.00;;;;;;;11.08;100.00;99268.09;105636;1253;100475;-79
2023/10/31 01:33:35;;;;;;;30.30;17.50;;;;;;;11.07;100.00;99258.95;105473;1264;99950;-79
2023/10/31 01:36:26;;;;;;;29.30;18.00;;;;;;;11.08;100.00;99241.86;105638;1259;100068;-78
2023/10/31 01:39:12;;;;;;;31.50;18.40;;;;;;;11.08;100.00;99224.88;105661;1258;96393;-79
2023/10/31 01:41:57;;;;;;;27.00;17.70;;;;;;;11.07;100.00;99213.80;105632;1257;96619;-78
2023/10/31 01:44:43;;;;;;;27.10;18.20;;;;;;;11.07;100.00;99207.21;105701;1257;100686;-79
2023/10/31 01:47:29;;;;;;;26.10;17.60;;;;;;;11.06;100.00;99199.91;105546;1258;99349;-79
2023/10/31 01:50:14;;;;;;;29.50;17.70;;;;;;;11.07;100.00;99190.59;105644;1253;99043;-80
2023/10/31 01:53:00;;;;;;;27.10;17.40;;;;;;;11.05;100.00;99176.48;105893;1257;96609;-80
2023/10/31 01:55:46;;;;;;;25.10;16.80;;;;;;;11.06;100.00;99164.63;105675;1261;97116;-80
2023/10/31 01:58:36;;;;;;;23.90;16.90;;;;;;;11.07;100.00;99174.84;105833;1254;101284;-79
2023/10/31 02:01:22;;;;;;;27.40;17.00;;;;;;;11.07;100.00;99181.33;106828;1259;99066;-79
2023/10/31 02:04:08;;;;;;;25.00;15.90;;;;;;;11.07;100.00;99175.66;105590;1259;98525;-79
2023/10/31 02:06:53;;;;;;;27.60;17.10;;;;;;;11.08;100.00;99171.17;105870;1257;96977;-80
2023/10/31 02:09:39;;;;;;;26.20;15.20;;;;;;;11.06;100.00;99169.79;105877;1258;96578;-80
2023/10/31 02:12:32;;;;;;;22.90;15.00;;;;;;;11.05;100.00;99160.23;105832;1260;101599;-79
2023/10/31 02:15:17;;;;;;;26.60;16.00;;;;;;;11.07;100.00;99149.50;105741;1255;100892;-78
2023/10/31 02:18:05;;;;;;;23.90;15.30;;;;;;;11.07;100.00;99141.41;105486;1260;97695;-78
2023/10/31 02:20:50;;;;;;;26.00;14.80;;;;;;;11.08;100.00;99137.48;105553;1259;97096;-80
2023/10/31 02:23:36;;;;;;;29.10;16.10;;;;;;;11.10;100.00;99132.35;105336;1262;97223;-78
2023/10/31 02:26:21;;;;;;;21.90;14.90;;;;;;;11.10;100.00;99122.42;105505;1257;100017;-79
2023/10/31 02:29:06;;;;;;;31.90;15.20;;;;;;;11.09;100.00;99120.58;105516;1257;100393;-78
2023/10/31 02:31:55;;;;;;;20.10;14.40;;;;;;;11.07;100.00;99118.73;105607;1259;99028;-79
2023/10/31 02:34:41;;;;;;;24.30;14.20;;;;;;;11.06;100.00;99115.01;105681;1254;96409;-78
2023/10/31 02:37:26;;;;;;;24.60;15.70;;;;;;;11.07;100.00;99103.73;105708;1265;97192;-77
2023/10/31 02:40:12;;;;;;;26.00;14.80;;;;;;;11.08;100.00;99099.48;105581;1260;100077;-78
2023/10/31 02:42:58;;;;;;;20.80;14.40;;;;;;;11.08;100.00;99097.86;105381;1258;99082;-78
2023/10/31 02:45:43;;;;;;;24.70;14.50;;;;;;;11.09;100.00;99085.07;105656;1258;98598;-79
2023/10/31 02:48:29;;;;;;;20.90;13.80;;;;;;;11.09;100.00;99074.88;105489;1255;97224;-78
2023/10/31 02:51:14;;;;;;;22.50;13.40;;;;;;;11.09;100.00;99069.87;105352;1254;96728;-78
2023/10/31 02:54:00;;;;;;;19.60;13.50;;;;;;;11.10;100.00;99064.13;105462;1256;100164;-78
2023/10/31 02:56:46;;;;;;;22.10;12.70;;;;;;;11.11;100.00;99056.15;105514;1259;100456;-79
2023/10/31 02:59:31;;;;;;;20.20;13.40;;;;;;;11.12;100.00;99057.05;105408;1258;99001;-79
2023/10/31 03:02:17;;;;;;;21.00;13.00;;;;;;;11.13;100.00;99054.94;105776;1266;97180;-79
2023/10/31 03:05:03;;;;;;;22.80;14.00;;;;;;;11.14;100.00;99055.70;105519;1254;97318;-79
2023/10/31 03:07:49;;;;;;;25.30;13.20;;;;;;;11.14;100.00;99055.11;105350;1260;101703;-77
2023/10/31 03:10:36;;;;;;;16.20;12.30;;;;;;;11.17;100.00;99056.36;105568;1257;100754;-78
2023/10/31 03:13:21;;;;;;;18.80;12.80;;;;;;;11.19;100.00;99058.84;105572;1257;97696;-78
2023/10/31 03:16:07;;;;;;;18.50;11.40;;;;;;;11.21;100.00;99058.56;105639;1257;96560;-78
2023/10/31 03:18:53;;;;;;;20.50;12.50;;;;;;;11.22;100.00;99055.28;105663;1254;96507;-79
2023/10/31 03:21:39;;;;;;;18.10;12.30;;;;;;;11.24;100.00;99046.81;105695;1267;101253;-78
2023/10/31 03:24:24;;;;;;;19.80;11.50;;;;;;;11.26;100.00;99045.46;105715;1257;99262;-78
2023/10/31 03:27:10;;;;;;;15.90;11.10;;;;;;;11.29;100.00;99030.94;105629;1258;99353;-79
2023/10/31 03:29:55;;;;;;;20.50;11.40;;;;;;;11.31;100.00;99022.86;105351;1259;96641;-78
2023/10/31 03:32:41;;;;;;;17.40;11.90;;;;;;;11.33;100.00;99017.76;105844;1257;96454;-79
2023/10/31 03:35:26;;;;;;;22.00;12.40;;;;;;;11.35;100.00;99010.47;105516;1255;101190;-78
2023/10/31 03:38:12;;;;;;;18.40;11.80;;;;;;;11.37;100.00;99005.04;105806;1260;99214;-80
2023/10/31 03:40:58;;;;;;;19.10;11.30;;;;;;;11.38;100.00;98991.41;105636;1259;98984;-78
2023/10/31 03:43:44;;;;;;;20.90;11.90;;;;;;;11.40;100.00;98980.36;105339;1254;97776;-79
2023/10/31 03:46:30;;;;;;;22.70;12.40;;;;;;;11.43;100.00;98979.30;105450;1254;97901;-79
2023/10/31 03:49:15;;;;;;;20.90;11.40;;;;;;;11.44;100.00;98965.33;105531;1260;101114;-79
2023/10/31 03:52:01;;;;;;;19.40;10.30;;;;;;;11.45;100.00;98957.59;105293;1254;100100;-78
2023/10/31 03:54:46;;;;;;;18.30;11.30;;;;;;;11.47;100.00;98957.14;105442;1259;97713;-79
2023/10/31 03:57:32;;;;;;;18.80;11.20;;;;;;;11.49;100.00;98950.11;105500;1260;97886;-79
2023/10/31 04:00:18;;;;;;;18.80;10.60;;;;;;;11.51;100.00;98950.16;105336;1267;97308;-77
2023/10/31 04:03:04;;;;;;;17.50;10.80;;;;;;;11.53;100.00;98947.80;105486;1256;101253;-79
2023/10/31 04:05:49;;;;;;;16.60;10.40;;;;;;;11.56;100.00;98941.31;105428;1268;99112;-78
2023/10/31 04:08:35;;;;;;;16.40;10.20;;;;;;;11.58;100.00;98939.12;105397;1259;97890;-78
2023/10/31 04:11:20;;;;;;;16.60;10.90;;;;;;;11.61;100.00;98936.23;105410;1268;96611;-78
2023/10/31 04:14:07;;;;;;;16.90;9.70;;;;;;;11.63;100.00;98937.89;105336;1257;97789;-77
2023/10/31 04:16:52;;;;;;;15.50;9.80;;;;;;;11.66;100.00;98930.55;105441;1258;100063;-78
2023/10/31 04:19:38;;;;;;;17.40;8.40;;;;;;;11.68;100.00;98928.05;105449;1264;100556;-78
2023/10/31 04:22:23;;;;;;;17.90;10.30;;;;;;;11.71;100.00;98923.60;105584;1258;99161;-78
2023/10/31 04:25:09;;;;;;;16.20;9.30;;;;;;;11.73;100.00;98917.32;105581;1254;96609;-78
2023/10/31 04:27:55;;;;;;;22.00;8.90;;;;;;;11.76;100.00;98898.47;105731;1258;97167;-79
2023/10/31 04:30:40;;;;;;;12.80;9.40;;;;;;;11.78;100.00;98892.23;105630;1260;101289;-77
2023/10/31 04:33:26;;;;;;;14.10;8.60;;;;;;;11.80;100.00;98887.88;105668;1254;99950;-79
2023/10/31 04:36:11;;;;;;;15.00;9.00;;;;;;;11.83;100.00;98875.37;105452;1255;97667;-78
2023/10/31 04:38:57;;;;;;;14.00;8.00;;;;;;;11.85;100.00;98868.71;105584;1258;97166;-78
2023/10/31 04:41:42;;;;;;;13.20;8.50;;;;;;;11.87;100.00;98857.45;105639;1257;97212;-78
2023/10/31 04:44:28;;;;;;;11.30;8.00;;;;;;;11.90;100.00;98856.52;105713;1258;101331;-78
2023/10/31 04:47:15;;;;;;;11.20;7.50;;;;;;;11.92;100.00;98840.91;105624;1255;99374;-78
2023/10/31 04:50:00;;;;;;;17.20;7.90;;;;;;;11.96;100.00;98838.41;105621;1257;99096;-78
2023/10/31 04:52:46;;;;;;;13.20;8.10;;;;;;;11.98;100.00;98831.38;105461;1254;96579;-77
2023/10/31 04:55:31;;;;;;;13.10;7.90;;;;;;;12.01;100.00;98830.62;105583;1258;96628;-78
2023/10/31 04:58:17;;;;;;;14.70;8.50;;;;;;;12.04;100.00;98827.49;105498;1257;101302;-78
2023/10/31 05:01:07;;;;;;;17.60;7.90;;;;;;;12.06;100.00;98817.80;105485;1258;108236;-77
2023/10/31 05:03:53;;;;;;;17.50;8.00;;;;;;;12.08;100.00;98816.79;105541;1253;99012;-78
2023/10/31 05:06:39;;;;;;;12.60;8.10;;;;;;;12.10;100.00;98819.14;105667;1254;96712;-78
2023/10/31 05:09:25;;;;;;;13.40;7.50;;;;;;;12.12;100.00;98815.23;105472;1257;97887;-79
2023/10/31 05:12:11;;;;;;;15.00;7.30;;;;;;;12.15;100.00;98815.33;105567;1254;100037;-79
2023/10/31 05:14:56;;;;;;;13.10;7.90;;;;;;;12.17;100.00;98809.41;105643;1257;100484;-79
2023/10/31 05:17:42;;;;;;;16.20;7.80;;;;;;;12.20;100.00;98808.16;105441;1257;99003;-78
2023/10/31 05:20:27;;;;;;;14.40;8.80;;;;;;;12.23;100.00;98809.40;105511;1268;96657;-78
2023/10/31 05:23:13;;;;;;;12.50;8.10;;;;;;;12.25;100.00;98811.86;105579;1257;96668;-79
2023/10/31 05:25:59;;;;;;;12.90;8.50;;;;;;;12.27;100.00;98805.62;105557;1257;100033;-79
2023/10/31 05:28:45;;;;;;;15.80;8.00;;;;;;;12.30;100.00;98808.05;105665;1257;100422;-79
2023/10/31 05:31:31;;;;;;;16.50;7.70;;;;;;;12.33;100.00;98804.17;105655;1256;99521;-80
2023/10/31 05:34:16;;;;;;;17.80;7.60;;;;;;;12.36;100.00;98802.03;105617;1257;96609;-78
2023/10/31 05:37:05;;;;;;;9.90;7.00;;;;;;;12.39;100.00;98796.98;105667;1254;96687;-78
2023/10/31 05:39:51;;;;;;;14.10;6.50;;;;;;;12.42;100.00;98791.76;105576;1254;100883;-79
2023/10/31 05:42:36;;;;;;;16.90;6.20;;;;;;;12.44;100.00;98787.23;105507;1257;100218;-79
2023/10/31 05:45:22;;;;;;;9.30;6.90;;;;;;;12.48;100.00;98785.52;105449;1253;98218;-77
2023/10/31 05:48:08;;;;;;;9.90;6.40;;;;;;;12.53;100.00;98782.64;105576;1257;96707;-78
2023/10/31 05:50:53;;;;;;;14.20;7.50;;;;;;;12.57;100.00;98781.43;105653;1257;96596;-78
2023/10/31 05:53:41;;;;;;;12.20;6.70;;;;;;;12.60;100.00;98776.86;105597;1254;101313;-78
2023/10/31 05:56:26;;;;;;;11.60;6.70;;;;;;;12.62;100.00;98775.94;105626;1257;99097;-79
2023/10/31 05:59:12;;;;;;;15.20;7.20;;;;;;;12.64;100.00;98766.02;105596;1257;97714;-78
2023/10/31 06:01:57;;;;;;;9.60;6.30;;;;;;;12.65;100.00;98767.71;105551;1257;96556;-78
2023/10/31 06:04:42;;;;;;;16.30;5.90;;;;;;;12.68;100.00;98766.69;105713;1254;97079;-80
2023/10/31 06:07:28;;;;;;;16.40;7.10;;;;;;;12.69;100.00;98764.77;105708;1255;101257;-77
2023/10/31 06:10:13;;;;;;;7.00;5.10;;;;;;;12.71;100.00;98767.12;105793;1257;99980;-77
2023/10/31 06:12:59;;;;;;;8.50;5.80;;;;;;;12.74;100.00;98770.11;105539;1254;98807;-76
2023/10/31 06:15:45;;;;;;;8.20;4.60;;;;;;;12.76;100.00;98773.59;105912;1257;96594;-78
2023/10/31 06:18:31;;;;;;;9.50;5.30;;;;;;;12.80;100.00;98767.47;105506;1254;97277;-79
2023/10/31 06:21:16;;;;;;;8.00;5.10;;;;;;;12.83;100.00;98760.85;105694;1255;100032;-80
2023/10/31 06:24:03;;;;;;;5.00;3.80;;;;;;;12.88;100.00;98750.67;105714;1254;99070;-77
2023/10/31 06:26:49;;;;;;;6.40;3.80;;;;;;;12.96;100.00;98747.41;106459;1253;97637;-79
2023/10/31 06:29:35;;;;;;;9.90;3.70;;;;;;;13.04;100.00;98738.41;105985;1257;96808;-78
2023/10/31 06:32:20;;;;;;;6.90;3.70;;;;;;;13.13;100.00;98732.62;105849;1257;96507;-79
2023/10/31 06:35:06;;;;;;;6.80;3.50;;;;;;;13.22;100.00;98731.71;106136;1257;100828;-78
2023/10/31 06:37:55;;;;;;;7.00;3.20;;;;;;;13.34;100.00;98728.85;105685;1254;99086;-79
2023/10/31 06:40:41;;;;;;;12.00;3.10;;;;;;;13.41;100.00;98728.42;105903;1257;98385;-79
2023/10/31 06:43:27;;;;;;;7.40;3.60;;;;;;;13.50;100.00;98724.86;105591;1255;97385;-79
2023/10/31 06:46:15;;;;;;;5.00;2.70;;;;;;;13.61;100.00;98727.30;105689;1257;97148;-79
2023/10/31 06:49:00;;;;;;;6.20;2.90;;;;;;;13.71;100.00;98725.11;105593;1254;100037;-79
2023/10/31 06:51:46;;;;;;;5.50;2.70;;;;;;;13.79;100.00;98728.27;105625;1254;99953;-79
2023/10/31 06:54:31;;;;;;;6.60;2.80;;;;;;;13.86;100.00;98734.00;105716;1253;98650;-78
2023/10/31 06:57:17;;;;;;;6.60;3.30;;;;;;;13.94;100.00;98738.81;105555;1257;96604;-78
2023/10/31 07:00:04;;;;;;;8.00;2.90;;;;;;;14.04;100.00;98747.91;105604;1253;97031;-77
2023/10/31 07:02:49;;;;;;;6.90;2.70;;;;;;;14.12;100.00;98755.96;105476;1260;100097;-78
2023/10/31 07:05:36;;;;;;;6.90;2.70;;;;;;;14.17;100.00;98758.23;105549;1254;99444;-78
2023/10/31 07:08:23;;;;;;;6.70;2.70;;;;;;;14.26;100.00;98751.16;105545;1255;97915;-79
2023/10/31 07:11:08;;;;;;;7.80;2.80;;;;;;;14.35;100.00;98749.48;105564;1254;97769;-77
2023/10/31 07:13:54;;;;;;;8.40;2.80;;;;;;;14.43;100.00;98750.52;105674;1257;97355;-78
2023/10/31 07:16:40;;;;;;;9.80;2.80;;;;;;;14.52;100.00;98752.50;105672;1255;101252;-77
2023/10/31 07:19:25;;;;;;;9.10;3.00;;;;;;;14.57;100.00;98755.28;106096;1253;99119;-84
2023/10/31 07:22:11;;;;;;;8.30;3.00;;;;;;;14.60;100.00;98750.95;106266;1253;97778;-87
2023/10/31 07:24:57;;;;;;;5.20;2.70;;;;;;;14.64;100.00;98747.30;106160;1260;96526;-84
2023/10/31 07:27:43;;;;;;;5.10;2.40;;;;;;;14.69;100.00;98753.60;106239;1253;96623;-86
2023/10/31 07:30:29;;;;;;;6.30;2.70;;;;;;;14.77;100.00;98748.59;106070;1257;100086;-85
2023/10/31 07:33:15;;;;;;;5.20;2.50;;;;;;;14.84;100.00;98744.55;106462;1253;99056;-82
2023/10/31 07:36:01;;;;;;;8.00;3.50;;;;;;;14.87;100.00;98739.34;106136;1254;98559;-85
2023/10/31 07:38:48;;;;;;;7.10;3.00;;;;;;;14.88;100.00;98737.39;106205;1252;96610;-84
2023/10/31 07:41:34;;;;;;;6.30;2.90;;;;;;;14.89;100.00;98734.61;106350;1254;96808;-86
2023/10/31 07:44:20;;;;;;;7.00;3.00;;;;;;;14.88;100.00;98729.64;106191;1259;100108;-86
2023/10/31 07:47:06;;;;;;;6.90;2.90;;;;;;;14.86;100.00;98718.20;106825;1253;100487;-86
2023/10/31 07:49:53;;;;;;;6.60;2.70;;;;;;;14.84;100.00;98714.79;106595;1254;99133;-84
2023/10/31 07:52:39;;;;;;;4.70;3.00;;;;;;;14.81;100.00;98715.48;107009;1260;96642;-88
2023/10/31 07:55:25;;;;;;;7.50;3.50;;;;;;;14.78;100.00;98711.73;106974;1253;96584;-88
2023/10/31 07:58:10;;;;;;;6.70;3.20;;;;;;;14.75;100.00;98712.89;106956;1253;100135;-87
2023/10/31 08:00:56;;;;;;;15.30;3.70;;;;;;;14.73;100.00;98718.16;106722;1253;100877;-80
2023/10/31 08:03:41;;;;;;;7.30;3.60;;;;;;;14.70;100.00;98720.94;106444;1257;98991;-79
2023/10/31 08:06:27;;;;;;;7.90;3.30;;;;;;;14.67;100.00;98725.88;106481;1257;96498;-80
2023/10/31 08:09:12;;;;;;;10.80;3.70;;;;;;;14.66;100.00;98723.61;106469;1253;95896;-79
2023/10/31 08:11:58;;;;;;;6.90;3.70;;;;;;;14.65;100.00;98721.45;106516;1253;101356;-80
2023/10/31 08:14:44;;;;;;;7.10;4.00;;;;;;;14.64;100.00;98711.31;106484;1257;100178;-80
2023/10/31 08:17:29;;;;;;;7.00;3.20;;;;;;;14.64;100.00;98704.85;106512;1253;97695;-80
2023/10/31 08:20:15;;;;;;;7.40;2.90;;;;;;;14.64;100.00;98706.79;106951;1253;96547;-79
2023/10/31 08:23:01;;;;;;;9.90;4.40;;;;;;;14.64;100.00;98710.34;106521;1253;97282;-80
2023/10/31 08:25:48;;;;;;;8.00;3.90;;;;;;;14.62;100.00;98709.63;106422;1254;101322;-79
2023/10/31 08:28:34;;;;;;;5.60;3.50;;;;;;;14.62;100.00;98715.94;106443;1257;99136;-80
2023/10/31 08:31:20;;;;;;;11.60;4.00;;;;;;;14.63;100.00;98713.56;106304;1253;97706;-80
2023/10/31 08:34:05;;;;;;;6.90;3.30;;;;;;;14.65;100.00;98704.41;106283;1258;96715;-80
2023/10/31 08:36:52;;;;;;;8.40;3.80;;;;;;;14.70;100.00;98701.42;106272;1254;97109;-80
2023/10/31 08:39:38;;;;;;;8.40;4.30;;;;;;;14.74;100.00;98702.11;106294;1253;100741;-79
2023/10/31 08:42:23;;;;;;;6.20;3.70;;;;;;;14.79;100.00;98701.33;106466;1256;98906;-79
2023/10/31 08:45:09;;;;;;;8.60;4.10;;;;;;;14.82;100.00;98699.57;106105;1253;97769;-80
2023/10/31 08:47:54;;;;;;;6.40;3.70;;;;;;;14.85;100.00;98703.14;106909;1254;97794;-80
2023/10/31 08:50:40;;;;;;;8.70;3.90;;;;;;;14.88;100.00;98703.48;106989;1254;96699;-81
2023/10/31 08:53:27;;;;;;;6.10;3.50;;;;;;;14.92;100.00;98698.92;106953;1253;100750;-80
2023/10/31 08:56:13;;;;;;;7.80;3.70;;;;;;;14.95;100.00;98704.40;106569;1254;100349;-80
2023/10/31 08:58:58;;;;;;;9.00;4.10;;;;;;;14.98;100.00;98706.09;106568;1253;98753;-80
2023/10/31 09:01:43;;;;;;;8.20;3.60;;;;;;;15.01;100.00;98708.42;106728;1253;96616;-80
2023/10/31 09:04:29;;;;;;;7.90;3.50;;;;;;;15.05;100.00;98714.75;106570;1256;97296;-80
2023/10/31 09:07:14;;;;;;;6.60;4.10;;;;;;;15.08;100.00;98719.90;106440;1253;100043;-80
2023/10/31 09:10:00;;;;;;;6.90;3.70;;;;;;;15.13;100.00;98723.00;106558;1253;99155;-81
2023/10/31 09:12:46;;;;;;;10.50;4.20;;;;;;;15.16;100.00;98726.10;106900;1254;97787;-80
2023/10/31 09:15:31;;;;;;;6.90;3.70;;;;;;;15.19;100.00;98733.67;107204;1253;96610;-81
2023/10/31 09:18:17;;;;;;;7.70;3.50;;;;;;;15.22;100.00;98735.13;107089;1253;97062;-81
2023/10/31 09:21:03;;;;;;;9.90;4.20;;;;;;;15.25;100.00;98737.36;107062;1254;101351;-80
2023/10/31 09:23:48;;;;;;;9.90;4.00;;;;;;;15.27;100.00;98738.29;107031;1258;99074;-80
2023/10/31 09:26:33;;;;;;;9.20;4.10;;;;;;;15.29;100.00;98738.52;107000;1254;99005;-81
2023/10/31 09:29:19;;;;;;;7.40;3.80;;;;;;;15.30;100.00;98740.25;107013;1254;96591;-80
2023/10/31 09:32:06;;;;;;;8.70;3.60;;;;;;;15.32;100.00;98739.13;106961;1253;96583;-81
2023/10/31 09:34:52;;;;;;;10.80;3.40;;;;;;;15.35;100.00;98738.44;107176;1253;101319;-81
2023/10/31 09:37:39;;;;;;;8.90;3.50;;;;;;;15.39;100.00;98742.23;107100;1253;99757;-81
2023/10/31 09:40:24;;;;;;;6.50;4.00;;;;;;;15.42;100.00;98747.66;106873;1253;97752;-81
2023/10/31 09:43:10;;;;;;;9.20;3.40;;;;;;;15.46;100.00;98746.17;107059;1253;97421;-81
2023/10/31 09:45:57;;;;;;;11.20;3.70;;;;;;;15.49;100.00;98749.86;107035;1256;96619;-80
2023/10/31 09:48:43;;;;;;;7.40;3.50;;;;;;;15.51;100.00;98750.41;107074;1254;101387;-80
2023/10/31 09:51:29;;;;;;;6.70;3.40;;;;;;;15.53;100.00;98746.96;107061;1254;99160;-81
2023/10/31 09:54:17;;;;;;;10.40;3.00;;;;;;;15.56;100.00;98743.96;106944;1254;97744;-80
2023/10/31 09:57:03;;;;;;;6.20;3.60;;;;;;;15.58;100.00;98739.06;106835;1257;96430;-80
2023/10/31 09:59:48;;;;;;;9.20;3.50;;;;;;;15.61;100.00;98741.66;107089;1255;97131;-88
2023/10/31 10:02:35;;;;;;;6.60;3.40;;;;;;;15.63;100.00;98744.04;106848;1253;99950;-89
2023/10/31 10:05:23;;;;;;;7.40;3.50;;;;;;;15.65;100.00;98740.27;106655;1260;101299;-88
2023/10/31 10:08:10;;;;;;;7.80;3.20;;;;;;;15.68;100.00;98741.36;106694;1257;97804;-91
2023/10/31 10:10:55;;;;;;;8.40;3.20;;;;;;;15.71;100.00;98746.27;106717;1257;96513;-86
2023/10/31 10:13:41;;;;;;;7.80;3.00;;;;;;;15.74;100.00;98748.07;106313;1260;96536;-87
2023/10/31 10:16:29;;;;;;;7.50;3.10;;;;;;;15.79;100.00;98752.80;106165;1259;100126;-81
2023/10/31 10:19:19;;;;;;;7.90;3.40;;;;;;;15.84;100.00;98757.77;106525;1257;99085;-81
2023/10/31 10:22:04;;;;;;;9.20;3.10;;;;;;;15.89;100.00;98761.35;106466;1254;97790;-81
2023/10/31 10:24:50;;;;;;;4.40;3.10;;;;;;;15.92;100.00;98763.69;106422;1256;96487;-81
2023/10/31 10:27:36;;;;;;;4.80;2.90;;;;;;;15.94;100.00;98762.07;106380;1257;96599;-81
2023/10/31 10:30:21;;;;;;;7.50;3.30;;;;;;;15.96;100.00;98757.80;106365;1256;100052;-81
2023/10/31 10:33:07;;;;;;;7.10;3.00;;;;;;;15.98;100.00;98752.52;106420;1253;100343;-81
2023/10/31 10:35:54;;;;;;;8.20;3.00;;;;;;;16.00;100.00;98749.06;106490;1253;97810;-81
2023/10/31 10:38:41;;;;;;;6.20;3.50;;;;;;;16.02;100.00;98748.55;106471;1258;97896;-81
2023/10/31 10:41:28;;;;;;;7.80;3.20;;;;;;;16.04;100.00;98758.27;106354;1254;97492;-81
2023/10/31 10:44:15;;;;;;;8.70;4.30;;;;;;;16.07;100.00;98756.05;106339;1257;100612;-81
2023/10/31 10:47:03;;;;;;;6.50;2.70;;;;;;;16.11;100.00;98751.20;106203;1256;99149;-82
2023/10/31 10:49:55;;;;;;;9.20;2.40;;;;;;;16.16;100.00;98753.98;106476;1260;99070;-81
2023/10/31 10:53:07;;;;;;;6.80;2.70;;;;;;;16.19;100.00;98757.16;106438;1254;97883;-82
2023/10/31 10:55:57;;;;;;;6.90;2.70;;;;;;;16.22;100.00;98765.76;106488;1256;96531;-81
2023/10/31 10:59:03;;;;;;;5.30;2.30;;;;;;;16.23;100.00;98775.42;106267;1253;102708;-82
2023/10/31 11:01:49;;;;;;;12.00;2.80;;;;;;;16.24;100.00;98783.11;106585;1253;99852;-82
2023/10/31 11:04:35;;;;;;;6.10;2.60;;;;;;;16.26;100.00;98785.48;106450;1259;98050;-81
2023/10/31 11:07:25;;;;;;;8.70;3.30;;;;;;;16.28;100.00;98797.16;106268;1253;97907;-81
2023/10/31 11:10:11;;;;;;;5.50;2.50;;;;;;;16.29;100.00;98807.42;106390;1254;98467;-82
2023/10/31 11:12:56;;;;;;;5.30;2.90;;;;;;;16.26;100.00;98822.13;106354;1253;101478;-81
2023/10/31 11:15:43;;;;;;;4.80;2.40;;;;;;;16.16;100.00;98834.20;106534;1253;99102;-81
2023/10/31 11:18:29;;;;;;;5.20;2.60;;;;;;;16.03;100.00;98829.73;106456;1258;97929;-81
2023/10/31 11:21:14;;;;;;;4.90;2.80;;;;;;;15.95;100.00;98821.48;106280;1253;97930;-81
2023/10/31 11:24:01;;;;;;;4.60;3.40;;;;;;;15.91;100.00;98817.80;106444;1252;99436;-82
2023/10/31 11:26:58;;;;;;;5.80;3.20;;;;;;;15.90;100.00;98816.02;106453;1257;101400;-81
2023/10/31 11:29:43;;;;;;;7.70;3.60;;;;;;;15.91;100.00;98811.04;106779;1254;100290;-81
2023/10/31 11:32:33;;;;;;;5.40;2.90;;;;;;;15.93;100.00;98814.06;106532;1257;98975;-83
2023/10/31 11:35:18;;;;;;;6.30;3.10;;;;;;;15.95;100.00;98812.03;106408;1254;98042;-83
2023/10/31 11:38:10;;;;;;;5.10;2.70;;;;;;;15.98;100.00;98816.05;106273;1259;97948;-82
2023/10/31 11:41:01;;;;;;;6.60;3.10;;;;;;;16.01;100.00;98818.52;106660;1254;102353;-83
2023/10/31 11:43:51;;;;;;;3.70;2.90;;;;;;;16.04;100.00;98814.05;106317;1256;100307;-83
2023/10/31 11:46:36;;;;;;;6.20;2.70;;;;;;;16.06;100.00;98818.17;106155;1253;122651;-83
2023/10/31 11:49:50;;;;;;;7.00;2.60;;;;;;;16.08;100.00;98821.31;106551;1256;99252;-83
2023/10/31 11:52:36;;;;;;;3.80;2.50;;;;;;;16.09;100.00;98821.42;106553;1253;98450;-84
2023/10/31 11:55:22;;;;;;;5.40;2.80;;;;;;;16.13;100.00;98826.63;106231;1253;102460;-82
2023/10/31 11:58:25;;;;;;;6.40;2.70;;;;;;;16.14;100.00;98832.45;106436;1257;100327;-82
2023/10/31 12:01:11;;;;;;;6.50;3.10;;;;;;;16.14;100.00;98836.13;106380;1253;99041;-82
2023/10/31 12:03:56;;;;;;;5.80;2.80;;;;;;;16.12;100.00;98839.33;106404;1254;97967;-83
2023/10/31 12:06:41;;;;;;;4.90;2.70;;;;;;;16.12;100.00;98838.34;106584;1254;98385;-83
2023/10/31 12:09:27;;;;;;;5.60;2.60;;;;;;;16.12;100.00;98835.16;106522;1256;102635;-82
2023/10/31 12:12:13;;;;;;;5.30;2.40;;;;;;;16.10;100.00;98840.02;107025;1256;100322;-83
2023/10/31 12:15:06;;;;;;;5.90;2.10;;;;;;;16.09;100.00;98846.34;106166;1262;98011;-82
2023/10/31 12:17:52;;;;;;;5.40;2.30;;;;;;;16.07;100.00;98852.49;106265;1257;97879;-82
2023/10/31 12:20:50;;;;;;;4.60;2.50;;;;;;;16.05;100.00;98855.55;106662;1256;97209;-83
2023/10/31 12:23:36;;;;;;;5.30;2.10;;;;;;;16.02;100.00;98857.54;106479;1254;101357;-82
2023/10/31 12:26:22;;;;;;;6.90;2.00;;;;;;;15.99;100.00;98863.25;106364;1256;99130;-83
2023/10/31 12:29:13;;;;;;;3.30;2.40;;;;;;;15.97;100.00;98871.29;106360;1254;99006;-83
2023/10/31 12:31:58;;;;;;;5.20;2.20;;;;;;;15.94;100.00;98875.21;106177;1255;99273;-82
2023/10/31 12:34:44;;;;;;;3.20;2.40;;;;;;;15.89;100.00;98880.82;106401;1254;97945;-81
2023/10/31 12:37:30;;;;;;;4.90;2.80;;;;;;;15.82;100.00;98885.14;106471;1253;102900;-82